Logo AVAMET
Benvolgut visitant, si us plau, ingressa Recuperar contrasenya

Bolulla

Dades diàries. Acumulats / Últims 30 dies disponibles

Data Temperatura (°C) Humitat rel. (%) Pressió rel. (hPa) Vent (km/h) Precipitació
Mínima Mitjana Màxima Amplitud
tèrmica
Mínima Mitjana Màxima Mínima Mitjana Màxima Predom. Mitjana Ràfega
màxima
Total
(mm)
Índex-n
Mínima Mitjana Màxima Mínima Mitjana Màxima n
0 a 1
P0 max
mm 5'
Dades mensuals acumulades fins l'últim dia disponible
08/2019 19,6 22,4 25,3 26,6 27,3 31,3 34,7 15,1 25 66 92 0 981 987   7,7 42,6 0,1
Dades anuals acumulades fins l'últim dia disponible
2019 3,2 12,8 26,4 17,1 10,7 21,7 38,4 35,2 23 64 97 0 999 1.032   8,3 79,6 123,2
Últims 30 dies disponibles
14-08-2019 19,6     23,8     28,5 8,9 54 73 87 987 987 987 OSO 9,5 33,3 0,0
13-08-2019 21,6     24,5     27,3 5,7 55 68 81 0 983 987 SE 7,9 33,3 0,0
12-08-2019 23,2     26,1     29,3 6,1 32 65 89 0 980 987 SE 8,9 42,6 0,0
11-08-2019 23,2     26,8     31,2 8,0 59 76 88 987 987 987 SO 6,3 28,1 0,1
10-08-2019 25,3     30,3     34,7 9,4 38 50 82 0 973 987 S 7,8 41,3 0,0
09-08-2019 23,7     29,1     34,2 10,5 37 46 58 0 983 987 OSO 7,8 27,8 0,0
08-08-2019 24,1     28,9     32,5 8,4 36 52 72 0 980 987 SO 8,3 29,6 0,0
07-08-2019 21,8     27,4     34,6 12,8 25 68 90 987 987 987 SO 6,7 25,9 0,0
06-08-2019 22,2     26,6     31,8 9,6 65 80 92 0 973 987 SO 6,5 25,9 0,0
05-08-2019 20,9     25,4     30,2 9,3 66 80 88 0 976 987 SO 7,0 27,8 0,0
04-08-2019 21,1     25,5     32,3 11,2 49 69 87 0 980 987 SO 7,5 25,9 0,0
03-08-2019 21,4     25,3     29,8 8,4 47 66 84 0 980 987 SO 7,4 27,8 0,0
02-08-2019 21,7     26,0     30,8 9,1 51 69 83 0 983 987 SSO 7,4 29,8 0,0
01-08-2019 23,2     26,1     31,6 8,4 51 67 78 0 980 987 SSE 8,6 41,3 0,0
31-07-2019 23,1     25,1     28,2 5,1 49 68 78 0 983 987 E 7,7 37,0 0,0
30-07-2019 20,0     24,3     30,8 10,8 53 77 89 0 983 987 SO 7,4 27,8 0,0
29-07-2019 19,7     24,5     29,9 10,2 47 68 85 0 983 987 OSO 8,3 35,9 0,0
28-07-2019 21,6     25,0     28,9 7,3 46 66 85 987 987 987 SSO 8,6 35,9 0,0
27-07-2019 21,2     27,2     33,1 11,9 23 57 95 0 980 987 O 8,4 46,3 0,1
26-07-2019 21,1     25,4     29,7 8,6 43 66 88 0 976 987 SO 7,1 25,9 0,0
25-07-2019 22,7     27,5     32,8 10,1 33 43 50 0 983 987 OSO 8,5 24,1 0,0
24-07-2019 23,2     28,4     35,2 12,0 27 37 48 0 983 987 OSO 8,2 27,8 0,0
23-07-2019 23,4     29,0     34,9 11,5 24 39 57 0 983 987 OSO 8,6 29,6 0,0
22-07-2019 22,9     28,0     33,3 10,4 28 47 70 987 987 987 SO 8,7 29,6 0,0
21-07-2019 19,4     24,7     25,0 5,6 57 59 60 987 987 987 NNO 9,0 16,7 0,0
17-07-2019 20,5     25,1     29,7 9,2 40 56 77 0 972 987 OSO 8,9 29,6 0,0
16-07-2019 21,2     25,0     28,7 7,5 49 63 81 0 979 987 OSO 8,9 31,5 0,0
15-07-2019 21,3     25,7     31,3 10,0 45 70 86 0 966 987 OSO 8,1 25,9 0,0
14-07-2019 21,6     25,0     29,4 7,8 62 80 90 0 983 987 SSO 6,6 26,3 0,0
13-07-2019 23,5     27,6     33,7 10,2 28 54 80 0 973 987 SSO 7,0 26,3 0,0
Últims 13 mesos disponibles
07/2019 19,4 21,6 26,4 26,2 25,0 31,2 38,4 19,0 37 60 80 966 982 987 OSO 8,0 46,3 0,2
06/2019 13,6 17,0 23,4 22,3 22,2 27,7 36,3 22,7 39 58 79 973 982 987 OSO 8,3 42,6 0,5
05/2019 9,8 13,2 18,7 17,4 18,0 22,1 26,9 17,1 56 70 84 962 984 1.001 OSO 8,1 54,2 7,1
04/2019 7,4 10,7 14,2 14,5 14,1 18,5 26,2 18,8 43 70 91 978 995 1.001 OSO 8,3 79,6
03/2019 6,8 9,0 12,2 13,4 12,2 18,0 26,4 19,6 40 61 85 991 1.014 1.028 O 8,2 56,1 44,0
02/2019 4,1 7,2 10,7 11,7 11,8 16,5 20,7 16,6 39 62 80 996 1.023 1.031 O 8,4 72,9 0,3
01/2019 3,2 7,1 11,3 10,5 10,7 14,9 19,7 16,5 43 64 85 1.003 1.017 1.029 ONO 8,7 75,9 15,7
12/2018 6,4 8,8 11,8 12,4 12,4 17,3 21,2 14,8 51 72 89 1.008 1.023 1.030 ONO 7,0 68,5 43,1
11/2018 7,5 11,0 16,9 14,0 13,4 17,6 21,8 14,3 56 73 89 999 1.014 1.021 O 7,5 63,3 146,0
10/2018 8,2 14,6 18,0 17,8 14,6 21,9 26,2 18,0 47 74 84 998 1.013 1.024 7,8 70,3 107,8
09/2018 14,6 19,9 22,8 23,2 23,6 27,5 31,3 16,7 65 77 86 1.011 1.018 1.026 7,3 48,1 102,1
08/2018 19,6 22,1 25,6 25,8 25,1 30,1 35,3 15,7 48 70 89 1.012 1.015 1.020 7,2 39,6 19,8
07/2018 18,3 21,4 27,2 26,3 28,6 30,4 33,5 15,2 44 63 78 988 997 1.014 8,7 61,8 0,0
Tots els anys disponibles
2018 2,8 13,6 27,2 17,3 7,4 21,5 35,3 32,5 41 69 90 984 1.013 1.032 OSO 8,0 85,1 705,8
2017 3,8 14,1 26,7 18,4 8,4 22,9 34,6 30,8 41 68 89 998 1.017 1.033 OSO 2,6 96,0 223,0
2016
Temperatura (°C)
Humitat relativa (%)
Velocitat del vent i ràfega màxima (km/h)
Direcció del vent (°)
Pressió (hPa)
Precipitació (mm)
Nota sobre les dades: s'avisa a l'usuari de la provisionalitat i no oficialitat d'aquestes dades
Logo AVAMET blanc
Web allotjada a Sollutia
Llicència de Creative CommonsLa web d'AVAMET i els seus continguts estan subjectes a una llicència de
Reconeixement - No Comercial - Compartir igual
Properes estacions: Altea - Club Nàutic d'Altea (Soci), Ares del Maestrat (Ajuntament Soci),      - - - - -      Últimes estacions: Catadau - Urb. Lloma Molina (Inforatge), Ontinyent - El Pilar (Soci) - - -